Olympus — WDF3956 — position and weather

sailwx.info

Track history (hours):
 
Tides and Currents Weather Stations Pressure Air Temp Water Temp Dewpoint Dewpoint Depression Visibility Wind Speed Wind Dir Waves Ship Positions

Olympus

Owner: Etsell, Richard W, Anacortes, WA. More information available from US FCC via Universal Licensing System and Coast Guard Vessel Documentation Center.

Last reported at 2017-Nov-26 01:21 UTC. Time now 2017-Dec-17 02:44 UTC.
Position N 39°19' W 076°13'.
Warning: this ship's position is 21 days out of date.

Length 26 m.

Type: Pleasure craft. MMSI: 367446080.

Date/timePositionNaut miles runAvg speedWind from/ knotsBaromVisibWave heightAir tempDewpointWater temp
2017-Nov-26 01:21N 39°19' W 076°13'3 9.9
2017-Nov-26 01:00N 39°21' W 076°09'610.3
2017-Nov-26 00:27N 39°24' W 076°03'510.5
2017-Nov-26 00:00N 39°28' W 075°59'510.5
2017-Nov-25 23:30N 39°31' W 075°53'510.2
2017-Nov-25 23:00N 39°32' W 075°47'5 9.5
2017-Nov-25 22:30N 39°33' W 075°41'611.3
2017-Nov-25 22:00N 39°34' W 075°34'4 7.9
2017-Nov-25 21:30N 39°30' W 075°34'5 9.5
2017-Nov-25 21:00N 39°25' W 075°31'510.6
2017-Nov-25 20:30N 39°21' W 075°27'510.5
2017-Nov-25 20:00N 39°17' W 075°22'510.5
2017-Nov-25 19:30N 39°13' W 075°18'510.3
2017-Nov-25 19:00N 39°09' W 075°14'40 7.3
2017-Nov-25 13:34N 39°15' W 074°24'110.2
2017-Nov-25 13:30N 39°16' W 074°23'1910.1
2017-Nov-25 11:36N 39°31' W 074°09'510.4
2017-Nov-25 11:05N 39°36' W 074°05'210.4
2017-Nov-25 10:52N 39°38' W 074°04'410.4
2017-Nov-25 10:27N 39°42' W 074°02'50 9.5
2017-Nov-25 05:10N 40°32' W 074°01'2 9.8
2017-Nov-25 04:58N 40°34' W 074°02'5 9.2
2017-Nov-25 04:27N 40°39' W 074°03'4 8.7
2017-Nov-25 04:00N 40°42' W 074°00'4 7.0
2017-Nov-25 03:28N 40°45' W 073°58'4 6.8
2017-Nov-25 02:53N 40°48' W 073°54'  
2017-Nov-18 18:57N 40°47' W 073°55'3 7.1
2017-Nov-18 18:29N 40°44' W 073°58'3 6.7
2017-Nov-18 18:00N 40°42' W 074°00'1 1.9
2017-Nov-18 17:30N 40°43' W 074°01'0 0.0
2017-Nov-18 17:00N 40°43' W 074°01'0 0.0
2017-Nov-18 16:30N 40°43' W 074°01'0 0.0
2017-Nov-18 16:00N 40°43' W 074°01'0 0.0
2017-Nov-18 15:30N 40°43' W 074°01'0 0.0
2017-Nov-18 15:00N 40°43' W 074°01'0 0.0
2017-Nov-18 14:30N 40°43' W 074°01'0 0.0
2017-Nov-18 14:00N 40°43' W 074°01'0 0.0
2017-Nov-18 13:30N 40°43' W 074°01'0 0.0
2017-Nov-18 13:00N 40°43' W 074°01'0 0.0
2017-Nov-18 12:30N 40°43' W 074°01'0 0.0
2017-Nov-18 12:00N 40°43' W 074°01'0 0.0
2017-Nov-18 11:30N 40°43' W 074°01'0 0.0
2017-Nov-18 11:00N 40°43' W 074°01'0 0.0
2017-Nov-18 10:30N 40°43' W 074°01'0 0.0
2017-Nov-18 10:00N 40°43' W 074°01'0 0.0
2017-Nov-18 09:30N 40°43' W 074°01'0 0.0
2017-Nov-18 09:00N 40°43' W 074°01'0 0.0
2017-Nov-18 08:30N 40°43' W 074°01'0 0.0
2017-Nov-18 08:00N 40°43' W 074°01'0 0.0
2017-Nov-18 07:30N 40°43' W 074°01'0 0.0
2017-Nov-18 07:00N 40°43' W 074°01'0 0.0
2017-Nov-18 06:30N 40°43' W 074°01'0 0.0
2017-Nov-18 06:00N 40°43' W 074°01'0 0.0
2017-Nov-18 05:30N 40°43' W 074°01'0 0.0
2017-Nov-18 05:00N 40°43' W 074°01'0 0.0
2017-Nov-18 04:30N 40°43' W 074°01'1 1.3
2017-Nov-18 03:59N 40°42' W 074°01'1 2.7
2017-Nov-18 03:30N 40°43' W 074°02'1 2.3
2017-Nov-18 03:00N 40°45' W 074°01'3 5.2
2017-Nov-18 02:30N 40°42' W 074°02'0 0.6
2017-Nov-18 02:00N 40°42' W 074°02'2 4.5
2017-Nov-18 01:30N 40°44' W 074°01'2 4.1
2017-Nov-18 01:00N 40°46' W 074°01'2 4.7
2017-Nov-18 00:30N 40°44' W 074°01'1 1.6
2017-Nov-17 23:59N 40°43' W 074°01'0 0.0
2017-Nov-17 23:29N 40°43' W 074°01'0 0.0
2017-Nov-17 22:59N 40°43' W 074°01'0 0.0
2017-Nov-17 22:29N 40°43' W 074°01'0 0.0
2017-Nov-17 21:59N 40°43' W 074°01'1 1.9
2017-Nov-17 21:30N 40°42' W 074°01'2 4.8
2017-Nov-17 21:00N 40°43' W 073°58'5 9.3
2017-Nov-17 20:28N 40°47' W 073°55'  
Track history (hours):
 
Tides and Currents Weather Stations Pressure Air Temp Water Temp Dewpoint Dewpoint Depression Visibility Wind Speed Wind Dir Waves Ship Positions

Olympus

Owner: Etsell, Richard W, Anacortes, WA. More information available from US FCC via Universal Licensing System and Coast Guard Vessel Documentation Center.

Last reported at 2017-Nov-26 01:21 UTC. Time now 2017-Dec-17 02:44 UTC.
Position N 39°19' W 076°13'.
Warning: this ship's position is 21 days out of date.

Length 26 m.

Type: Pleasure craft. MMSI: 367446080.

Date/timePositionNaut miles runAvg speedWind from/ knotsBaromVisibWave heightAir tempDewpointWater temp
2017-Nov-26 01:21N 39°19' W 076°13'3 9.9
2017-Nov-26 01:00N 39°21' W 076°09'610.3
2017-Nov-26 00:27N 39°24' W 076°03'510.5
2017-Nov-26 00:00N 39°28' W 075°59'510.5
2017-Nov-25 23:30N 39°31' W 075°53'510.2
2017-Nov-25 23:00N 39°32' W 075°47'5 9.5
2017-Nov-25 22:30N 39°33' W 075°41'611.3
2017-Nov-25 22:00N 39°34' W 075°34'4 7.9
2017-Nov-25 21:30N 39°30' W 075°34'5 9.5
2017-Nov-25 21:00N 39°25' W 075°31'510.6
2017-Nov-25 20:30N 39°21' W 075°27'510.5
2017-Nov-25 20:00N 39°17' W 075°22'510.5
2017-Nov-25 19:30N 39°13' W 075°18'510.3
2017-Nov-25 19:00N 39°09' W 075°14'40 7.3
2017-Nov-25 13:34N 39°15' W 074°24'110.2
2017-Nov-25 13:30N 39°16' W 074°23'1910.1
2017-Nov-25 11:36N 39°31' W 074°09'510.4
2017-Nov-25 11:05N 39°36' W 074°05'210.4
2017-Nov-25 10:52N 39°38' W 074°04'410.4
2017-Nov-25 10:27N 39°42' W 074°02'50 9.5
2017-Nov-25 05:10N 40°32' W 074°01'2 9.8
2017-Nov-25 04:58N 40°34' W 074°02'5 9.2
2017-Nov-25 04:27N 40°39' W 074°03'4 8.7
2017-Nov-25 04:00N 40°42' W 074°00'4 7.0
2017-Nov-25 03:28N 40°45' W 073°58'4 6.8
2017-Nov-25 02:53N 40°48' W 073°54'  
2017-Nov-18 18:57N 40°47' W 073°55'3 7.1
2017-Nov-18 18:29N 40°44' W 073°58'3 6.7
2017-Nov-18 18:00N 40°42' W 074°00'1 1.9
2017-Nov-18 17:30N 40°43' W 074°01'0 0.0
2017-Nov-18 17:00N 40°43' W 074°01'0 0.0
2017-Nov-18 16:30N 40°43' W 074°01'0 0.0
2017-Nov-18 16:00N 40°43' W 074°01'0 0.0
2017-Nov-18 15:30N 40°43' W 074°01'0 0.0
2017-Nov-18 15:00N 40°43' W 074°01'0 0.0
2017-Nov-18 14:30N 40°43' W 074°01'0 0.0
2017-Nov-18 14:00N 40°43' W 074°01'0 0.0
2017-Nov-18 13:30N 40°43' W 074°01'0 0.0
2017-Nov-18 13:00N 40°43' W 074°01'0 0.0
2017-Nov-18 12:30N 40°43' W 074°01'0 0.0
2017-Nov-18 12:00N 40°43' W 074°01'0 0.0
2017-Nov-18 11:30N 40°43' W 074°01'0 0.0
2017-Nov-18 11:00N 40°43' W 074°01'0 0.0
2017-Nov-18 10:30N 40°43' W 074°01'0 0.0
2017-Nov-18 10:00N 40°43' W 074°01'0 0.0
2017-Nov-18 09:30N 40°43' W 074°01'0 0.0
2017-Nov-18 09:00N 40°43' W 074°01'0 0.0
2017-Nov-18 08:30N 40°43' W 074°01'0 0.0
2017-Nov-18 08:00N 40°43' W 074°01'0 0.0
2017-Nov-18 07:30N 40°43' W 074°01'0 0.0
2017-Nov-18 07:00N 40°43' W 074°01'0 0.0
2017-Nov-18 06:30N 40°43' W 074°01'0 0.0
2017-Nov-18 06:00N 40°43' W 074°01'0 0.0
2017-Nov-18 05:30N 40°43' W 074°01'0 0.0
2017-Nov-18 05:00N 40°43' W 074°01'0 0.0
2017-Nov-18 04:30N 40°43' W 074°01'1 1.3
2017-Nov-18 03:59N 40°42' W 074°01'1 2.7
2017-Nov-18 03:30N 40°43' W 074°02'1 2.3
2017-Nov-18 03:00N 40°45' W 074°01'3 5.2
2017-Nov-18 02:30N 40°42' W 074°02'0 0.6
2017-Nov-18 02:00N 40°42' W 074°02'2 4.5
2017-Nov-18 01:30N 40°44' W 074°01'2 4.1
2017-Nov-18 01:00N 40°46' W 074°01'2 4.7
2017-Nov-18 00:30N 40°44' W 074°01'1 1.6
2017-Nov-17 23:59N 40°43' W 074°01'0 0.0
2017-Nov-17 23:29N 40°43' W 074°01'0 0.0
2017-Nov-17 22:59N 40°43' W 074°01'0 0.0
2017-Nov-17 22:29N 40°43' W 074°01'0 0.0
2017-Nov-17 21:59N 40°43' W 074°01'1 1.9
2017-Nov-17 21:30N 40°42' W 074°01'2 4.8
2017-Nov-17 21:00N 40°43' W 073°58'5 9.3
2017-Nov-17 20:28N 40°47' W 073°55'  

Dump ship's entire track history